Time;durP1;ratioP1;P1;durP2;ratioP2;P2;SDS_P1;SDS_P2;PMS_P1;PMS_P2;Temp;Humidity;BMP_temperature;BMP_pressure;BME280_temperature;BME280_humidity;BME280_pressure;Samples;Min_cycle;Max_cycle;Signal;HPM_P1;HPM_P2
2021/12/05 00:21:38;;;;;;;2.10;1.58;;;;;;;-3.45;80.58;99881.44;5043982;28;20061;-69
2021/12/05 00:23:46;;;;;;;3.58;2.10;;;;;;;-3.49;80.81;99894.00;5043149;28;20061;-67
2021/12/05 00:26:17;;;;;;;5.23;2.00;;;;;;;-3.36;80.33;99891.94;5043685;28;20212;-68
2021/12/05 00:31:54;;;;;;;2.17;1.65;;;;;;;-3.44;80.23;99899.25;5043613;28;20051;-68
2021/12/05 00:40:12;;;;;;;3.67;1.95;;;;;;;-3.62;80.00;99904.44;5027375;28;20057;-68
2021/12/05 00:46:00;;;;;;;2.25;1.85;;;;;;;-3.52;79.46;99913.31;5043403;28;20033;-67
2021/12/05 00:49:17;;;;;;;2.15;1.50;;;;;;;-3.61;79.30;99932.41;5037372;28;20049;-68
2021/12/05 00:55:54;;;;;;;4.28;2.03;;;;;;;-3.59;78.66;99950.25;5047373;28;20045;-68
2021/12/05 01:11:32;;;;;;;3.13;2.03;;;;;;;-3.84;79.15;99949.22;5046994;28;20427;-67
2021/12/05 01:16:26;;;;;;;4.25;1.80;;;;;;;-3.84;79.21;99979.66;5046914;28;20021;-67
2021/12/05 01:18:52;;;;;;;2.72;1.58;;;;;;;-3.87;79.16;99977.00;5047080;28;20029;-68
2021/12/05 01:21:20;;;;;;;2.70;1.42;;;;;;;-3.87;78.97;99974.47;5046849;28;20688;-67
2021/12/05 01:26:22;;;;;;;;;;;;;;;-3.77;78.58;100001.09;5047102;28;20112;-67
2021/12/05 01:39:21;;;;;;;2.47;1.95;;;;;;;-3.94;78.74;100002.88;5046671;28;20036;-67
2021/12/05 02:09:44;;;;;;;3.88;2.13;;;;;;;-4.16;77.73;100027.28;5044848;28;20030;-65
2021/12/05 02:39:09;;;;;;;2.33;1.77;;;;;;;-4.51;77.75;100057.81;5045650;28;20025;-66
2021/12/05 02:41:38;;;;;;;2.40;1.33;;;;;;;-4.56;77.86;100046.59;5045316;28;20025;-66
2021/12/05 02:44:13;;;;;;;2.35;1.70;;;;;;;-4.44;77.55;100056.44;5045037;28;20024;-67
2021/12/05 02:46:42;;;;;;;8.88;2.88;;;;;;;-4.49;77.71;100046.94;5045117;28;20034;-66
2021/12/05 02:49:11;;;;;;;2.45;1.23;;;;;;;-4.53;77.86;100052.69;5045187;28;20596;-66
2021/12/05 02:51:36;;;;;;;2.08;1.77;;;;;;;-4.62;77.96;100052.25;5045192;28;20034;-66
2021/12/05 02:54:09;;;;;;;3.10;1.98;;;;;;;-4.68;78.23;100054.50;5043942;28;20033;-66
2021/12/05 02:56:41;;;;;;;2.97;1.63;;;;;;;-4.64;78.25;100064.84;5045056;28;20045;-67
2021/12/05 02:59:21;;;;;;;;;;;;;;;-4.66;78.10;100066.41;5045347;28;20029;-66
2021/12/05 03:02:00;;;;;;;2.33;1.38;;;;;;;-4.74;78.11;100070.25;5045268;28;19909;-66
2021/12/05 03:04:30;;;;;;;5.03;2.45;;;;;;;-4.74;78.17;100078.72;5044986;28;20125;-66
2021/12/05 03:06:57;;;;;;;3.20;1.80;;;;;;;-4.83;78.36;100072.34;5044907;28;20022;-66
2021/12/05 03:09:23;;;;;;;6.65;3.75;;;;;;;-4.88;78.56;100075.53;5044907;28;20049;-67
2021/12/05 03:11:50;;;;;;;4.00;2.47;;;;;;;-4.91;78.56;100082.97;5043404;28;20029;-67
2021/12/05 03:14:16;;;;;;;6.03;2.30;;;;;;;-4.97;78.80;100086.06;5042359;28;20141;-67
2021/12/05 03:16:42;;;;;;;4.78;2.05;;;;;;;-4.93;78.57;100096.34;5044527;28;20025;-67
2021/12/05 03:19:09;;;;;;;6.40;2.15;;;;;;;-5.04;78.71;100104.28;5044700;28;20026;-66
2021/12/05 03:21:36;;;;;;;4.85;2.70;;;;;;;-5.08;79.12;100097.34;5044672;28;20101;-67
2021/12/05 03:24:04;;;;;;;5.53;2.45;;;;;;;-5.11;79.02;100107.28;5044616;28;20422;-66
2021/12/05 03:26:33;;;;;;;4.68;2.78;;;;;;;-5.12;78.82;100110.63;5044088;28;20052;-66
2021/12/05 03:28:59;;;;;;;3.85;2.03;;;;;;;-5.16;79.25;100108.72;5043632;28;20024;-65
2021/12/05 03:31:30;;;;;;;4.70;2.90;;;;;;;-5.23;79.30;100110.97;5043586;28;20045;-66
2021/12/05 03:33:56;;;;;;;4.53;2.70;;;;;;;-5.26;79.39;100113.34;5044483;28;20485;-66
2021/12/05 03:36:23;;;;;;;6.13;1.98;;;;;;;-5.25;79.33;100125.19;5044508;28;20037;-66
2021/12/05 03:38:49;;;;;;;5.32;2.83;;;;;;;-5.23;79.26;100122.72;5044192;28;20006;-67
2021/12/05 03:41:16;;;;;;;4.43;2.65;;;;;;;-5.28;79.52;100124.16;5042950;28;20028;-66
2021/12/05 03:43:45;;;;;;;5.60;3.20;;;;;;;-5.29;79.50;100125.81;5044086;28;20032;-66
2021/12/05 03:46:11;;;;;;;6.22;2.92;;;;;;;-5.30;79.58;100129.13;5042697;28;20021;-67
2021/12/05 03:48:43;;;;;;;4.60;2.42;;;;;;;-5.28;79.72;100139.34;5044047;28;20021;-66
2021/12/05 03:51:12;;;;;;;5.93;2.75;;;;;;;-5.30;79.88;100146.00;5044132;28;20092;-66
2021/12/05 03:53:37;;;;;;;6.70;3.40;;;;;;;-5.26;79.75;100150.41;5044107;28;20053;-66
2021/12/05 03:56:04;;;;;;;3.47;2.00;;;;;;;-5.32;80.02;100153.50;5042770;28;20029;-67
2021/12/05 03:58:29;;;;;;;5.25;2.55;;;;;;;-5.27;80.09;100157.13;5044013;28;20018;-67
2021/12/05 04:00:58;;;;;;;5.32;2.83;;;;;;;-5.25;80.20;100175.81;5043804;28;20036;-67
2021/12/05 04:03:25;;;;;;;4.95;2.17;;;;;;;-5.28;80.05;100184.88;5044075;28;20089;-67
2021/12/05 04:05:52;;;;;;;3.67;2.00;;;;;;;-5.20;80.01;100177.69;5042498;28;20021;-67
2021/12/05 04:08:20;;;;;;;10.27;3.60;;;;;;;-5.23;80.33;100194.47;5043808;28;20486;-67
2021/12/05 04:10:49;;;;;;;4.50;2.53;;;;;;;-5.25;80.42;100206.19;5043945;28;20048;-66
2021/12/05 04:13:15;;;;;;;4.32;2.35;;;;;;;-5.25;80.29;100208.72;5043849;28;20086;-66
2021/12/05 04:15:41;;;;;;;5.55;2.83;;;;;;;-5.14;80.34;100204.19;5043377;28;20041;-66
2021/12/05 04:18:07;;;;;;;4.65;2.60;;;;;;;-5.16;80.52;100212.53;5043609;28;20021;-66
2021/12/05 04:20:32;;;;;;;5.60;2.72;;;;;;;-5.14;80.55;100219.38;5043716;28;20540;-66
2021/12/05 04:22:58;;;;;;;3.72;2.38;;;;;;;-5.14;80.29;100226.97;5043697;28;20028;-66
2021/12/05 04:25:25;;;;;;;4.88;2.78;;;;;;;-5.10;80.49;100220.44;5043193;28;20113;-67
2021/12/05 04:27:53;;;;;;;4.18;2.55;;;;;;;-5.06;80.39;100222.31;5043467;28;20064;-67
2021/12/05 04:30:21;;;;;;;2.35;1.52;;;;;;;-5.07;80.60;100229.84;5043475;28;20025;-67
2021/12/05 04:32:47;;;;;;;3.42;2.42;;;;;;;-5.05;80.72;100228.25;5043707;28;20513;-66
2021/12/05 04:35:14;;;;;;;3.58;1.67;;;;;;;-5.02;80.69;100228.41;5043436;28;20048;-66
2021/12/05 04:37:40;;;;;;;2.78;2.17;;;;;;;-4.96;80.70;100223.66;5043502;28;20167;-65
2021/12/05 04:40:07;;;;;;;3.25;2.42;;;;;;;-4.95;80.67;100219.50;5043530;28;20490;-68
2021/12/05 04:42:32;;;;;;;2.17;1.88;;;;;;;-4.98;80.92;100223.59;5043350;28;20076;-67
2021/12/05 04:45:00;;;;;;;3.55;2.08;;;;;;;-4.96;80.70;100228.72;5043285;28;20025;-67
2021/12/05 04:47:25;;;;;;;3.67;2.17;;;;;;;-4.88;80.40;100227.47;5043348;28;20029;-66
2021/12/05 04:49:51;;;;;;;2.65;2.05;;;;;;;-4.91;80.57;100224.78;5043513;28;20081;-66
2021/12/05 04:52:17;;;;;;;7.97;3.10;;;;;;;-4.81;80.38;100226.13;5043650;28;20018;-66
2021/12/05 04:54:43;;;;;;;3.67;2.20;;;;;;;-4.88;80.47;100241.78;5043458;28;20053;-66
2021/12/05 04:57:10;;;;;;;2.70;2.05;;;;;;;-4.81;80.46;100241.34;5043529;28;20050;-67
2021/12/05 04:59:37;;;;;;;4.38;2.30;;;;;;;-4.79;80.45;100237.19;5043248;28;20022;-66
2021/12/05 05:02:07;;;;;;;5.35;2.35;;;;;;;-4.83;80.46;100239.50;5043462;28;20063;-66
2021/12/05 05:04:39;;;;;;;3.30;2.33;;;;;;;-4.86;80.67;100246.13;5043356;28;20025;-67
2021/12/05 05:07:12;;;;;;;4.38;2.67;;;;;;;-4.79;80.46;100241.41;5042990;28;20026;-67
2021/12/05 05:09:38;;;;;;;5.15;2.38;;;;;;;-4.84;80.35;100236.09;5043467;28;20017;-67
2021/12/05 05:12:04;;;;;;;4.28;2.70;;;;;;;-4.78;80.23;100246.56;5058635;28;20049;-66
2021/12/05 05:14:29;;;;;;;3.15;2.20;;;;;;;-4.83;80.31;100250.50;5042821;28;20539;-66
2021/12/05 05:16:55;;;;;;;8.07;1.83;;;;;;;-4.73;80.27;100245.09;5043333;28;20473;-67
2021/12/05 05:19:30;;;;;;;1.83;1.50;;;;;;;-4.71;80.19;100252.78;5043083;28;20018;-68
2021/12/05 05:22:08;;;;;;;4.30;2.40;;;;;;;-4.71;80.22;100255.31;5043136;28;20175;-67
2021/12/05 05:30:41;;;;;;;3.65;2.08;;;;;;;-4.68;79.98;100282.47;5000968;28;20363;-66
2021/12/05 05:47:38;;;;;;;2.53;1.83;;;;;;;-4.48;78.84;100301.25;4927342;29;20035;-67
2021/12/05 05:52:11;;;;;;;3.38;2.08;;;;;;;-4.63;79.21;100301.31;4927454;29;20119;-67
2021/12/05 05:54:37;;;;;;;3.92;2.53;;;;;;;-4.55;78.91;100310.19;4927459;29;20058;-67
2021/12/05 05:57:16;;;;;;;2.95;1.90;;;;;;;-4.65;78.93;100316.44;4927038;29;20596;-66
2021/12/05 05:59:49;;;;;;;4.43;2.53;;;;;;;-4.68;79.06;100328.94;4927181;29;20051;-66
2021/12/05 06:04:40;;;;;;;2.88;2.10;;;;;;;-4.69;79.02;100334.81;4946027;29;20039;-66
2021/12/05 06:07:05;;;;;;;3.53;2.45;;;;;;;-4.73;79.07;100332.91;4945834;29;20058;-67
2021/12/05 06:09:31;;;;;;;5.85;2.72;;;;;;;-4.74;79.18;100328.63;4945957;29;20031;-66
2021/12/05 06:11:56;;;;;;;3.53;2.40;;;;;;;-4.81;79.23;100346.81;4946148;29;20039;-67
2021/12/05 06:14:22;;;;;;;4.60;2.70;;;;;;;-4.81;79.19;100346.81;4945769;29;20047;-67
2021/12/05 06:16:47;;;;;;;5.82;2.35;;;;;;;-4.78;78.89;100342.81;4982341;28;20409;-65
2021/12/05 06:19:13;;;;;;;2.47;1.75;;;;;;;-4.70;78.64;100347.41;5046015;28;20036;-65
2021/12/05 06:21:39;;;;;;;3.30;2.28;;;;;;;-4.82;78.87;100345.94;5045990;28;20047;-67
2021/12/05 06:24:05;;;;;;;3.58;1.92;;;;;;;-4.79;78.96;100353.72;5045749;28;20041;-67
2021/12/05 06:26:31;;;;;;;4.05;2.70;;;;;;;-4.87;79.11;100358.38;5045701;28;20092;-66
2021/12/05 06:29:12;;;;;;;4.05;2.50;;;;;;;-4.89;79.03;100357.41;5045525;28;20436;-67
2021/12/05 06:36:59;;;;;;;5.90;2.70;;;;;;;-4.98;78.87;100388.19;5045712;28;20052;-66
2021/12/05 06:39:41;;;;;;;4.60;2.55;;;;;;;-5.12;79.12;100382.38;5045549;28;20029;-67
2021/12/05 06:47:28;;;;;;;3.38;2.13;;;;;;;-5.01;79.14;100430.19;5045059;28;20083;-68
2021/12/05 06:49:54;;;;;;;5.47;2.65;;;;;;;-5.10;79.32;100420.44;5043729;28;20025;-68
2021/12/05 06:52:21;;;;;;;3.35;1.77;;;;;;;-5.08;79.16;100423.06;5045076;28;20021;-67
2021/12/05 06:54:46;;;;;;;2.70;2.08;;;;;;;-5.11;79.28;100421.19;5045097;28;20023;-67
2021/12/05 06:57:12;;;;;;;5.70;2.78;;;;;;;-5.04;79.33;100424.94;5045050;28;20067;-67
2021/12/05 06:59:39;;;;;;;4.45;2.00;;;;;;;-5.01;79.07;100432.72;5044789;28;20028;-66
2021/12/05 07:02:07;;;;;;;1.73;1.48;;;;;;;-5.04;79.42;100430.91;5045019;28;20033;-67
2021/12/05 07:04:54;;;;;;;4.00;2.03;;;;;;;-5.00;79.50;100437.88;5044785;28;20359;-67
2021/12/05 07:07:28;;;;;;;3.50;2.05;;;;;;;-4.99;79.27;100447.22;5044670;28;20053;-67
2021/12/05 07:09:54;;;;;;;3.13;2.00;;;;;;;-5.06;79.56;100440.06;5044718;28;20021;-66
2021/12/05 07:15:09;;;;;;;3.60;2.60;;;;;;;-5.03;79.61;100450.34;5044461;28;20021;-67
2021/12/05 07:20:36;;;;;;;3.45;1.98;;;;;;;-5.02;79.62;100461.38;5044633;28;20065;-67
2021/12/05 07:23:23;;;;;;;4.63;2.67;;;;;;;-5.05;79.42;100449.41;5044633;28;20026;-66
2021/12/05 07:26:04;;;;;;;6.28;3.10;;;;;;;-5.00;79.37;100475.84;5044496;28;20403;-69
2021/12/05 07:42:18;;;;;;;5.93;2.95;;;;;;;-5.06;80.02;100499.97;5044120;28;20155;-67
2021/12/05 07:44:44;;;;;;;3.28;2.25;;;;;;;-5.04;80.00;100501.78;5043982;28;20032;-66
2021/12/05 07:47:09;;;;;;;3.50;2.47;;;;;;;-5.05;80.07;100507.66;5042464;28;20025;-66
2021/12/05 07:49:35;;;;;;;4.15;1.98;;;;;;;-4.95;80.10;100513.25;5042684;28;20026;-65
2021/12/05 07:52:00;;;;;;;3.95;3.13;;;;;;;-4.90;79.86;100516.88;5043985;28;20064;-67
2021/12/05 07:54:34;;;;;;;6.68;2.83;;;;;;;-4.90;79.91;100527.00;5044092;28;20026;-67
2021/12/05 07:57:17;;;;;;;6.53;2.97;;;;;;;-4.89;79.67;100526.25;5043966;28;20021;-67
2021/12/05 07:59:57;;;;;;;3.22;2.13;;;;;;;-4.87;79.93;100537.31;5043289;28;20083;-68
2021/12/05 08:16:09;;;;;;;3.50;2.35;;;;;;;-4.55;79.27;100548.38;5043548;28;20036;-68
2021/12/05 08:18:35;;;;;;;4.40;2.28;;;;;;;-4.53;78.93;100559.47;5043351;28;20029;-68
2021/12/05 08:21:04;;;;;;;5.28;3.08;;;;;;;-4.46;79.03;100569.97;5043412;28;20032;-68
2021/12/05 08:23:30;;;;;;;2.88;2.55;;;;;;;-4.48;78.89;100578.34;5043541;28;20540;-69
2021/12/05 08:31:10;;;;;;;3.10;2.00;;;;;;;-4.39;78.37;100587.25;5043095;28;19917;-67
2021/12/05 09:25:40;;;;;;;2.97;1.75;;;;;;;-4.12;76.09;100641.13;4946854;29;20035;-69
2021/12/05 09:29:08;;;;;;;4.15;1.98;;;;;;;-3.96;75.46;100649.59;4946382;29;20095;-69
2021/12/05 09:31:04;;;;;;;10.95;2.58;;;;;;;-4.14;75.98;100669.75;4943664;29;20040;-67
2021/12/05 09:39:56;;;;;;;3.22;2.33;;;;;;;-4.01;76.36;100651.00;4946735;29;20091;-69
2021/12/05 10:09:43;;;;;;;2.47;1.92;;;;;;;-2.70;72.20;100677.22;5023553;28;20026;-68
2021/12/05 10:15:01;;;;;;;2.47;1.65;;;;;;;-2.83;72.09;100675.72;5023386;28;20026;-69
2021/12/05 10:17:51;;;;;;;1.80;1.33;;;;;;;-2.87;71.91;100689.94;5023551;28;20040;-68
2021/12/05 10:26:23;;;;;;;3.20;1.65;;;;;;;-3.00;71.90;100704.53;5022931;28;20473;-68
2021/12/05 10:38:12;;;;;;;7.00;1.63;;;;;;;-3.38;71.22;100706.81;5045523;28;20014;-68
2021/12/05 10:40:45;;;;;;;1.85;1.35;;;;;;;-3.54;71.42;100683.94;5045464;28;20124;-70
2021/12/05 10:43:17;;;;;;;3.15;1.92;;;;;;;-3.46;71.60;100709.72;5044445;28;20040;-68
2021/12/05 10:45:58;;;;;;;2.35;2.15;;;;;;;-3.44;71.45;100701.44;5045345;28;20088;-69
2021/12/05 10:48:30;;;;;;;2.53;1.70;;;;;;;-3.46;71.05;100708.06;5045536;28;20025;-69
2021/12/05 10:51:03;;;;;;;3.35;2.72;;;;;;;-3.75;71.45;100693.03;5043901;28;20080;-69
2021/12/05 10:53:41;;;;;;;3.13;1.50;;;;;;;-3.63;71.49;100724.94;5045183;28;20541;-69
2021/12/05 10:56:09;;;;;;;3.38;2.08;;;;;;;-3.70;71.49;100715.22;5045360;28;20480;-69
2021/12/05 10:58:34;;;;;;;3.38;1.95;;;;;;;-3.68;71.39;100728.88;5045533;28;20028;-67
2021/12/05 11:01:10;;;;;;;3.47;1.73;;;;;;;-3.79;71.53;100703.81;5045041;28;20033;-67
2021/12/05 11:03:35;;;;;;;2.83;2.08;;;;;;;-3.89;71.07;100711.69;5045267;28;20040;-69
2021/12/05 11:06:01;;;;;;;4.90;2.28;;;;;;;-3.93;71.76;100719.94;5045157;28;20025;-68
2021/12/05 11:08:38;;;;;;;2.75;2.28;;;;;;;-4.01;71.95;100701.75;5043485;28;20022;-68
2021/12/05 11:11:08;;;;;;;1.80;1.60;;;;;;;-3.89;72.17;100717.63;5045279;28;20026;-68
2021/12/05 11:13:36;;;;;;;4.15;2.10;;;;;;;-3.89;71.61;100732.88;5044758;28;20037;-68
2021/12/05 11:16:02;;;;;;;2.17;1.63;;;;;;;-3.95;71.66;100727.44;5045017;28;20014;-69
2021/12/05 11:18:41;;;;;;;2.10;1.88;;;;;;;-3.97;71.42;100731.56;5044921;28;20363;-68
2021/12/05 11:21:33;;;;;;;4.10;1.50;;;;;;;-4.08;72.01;100735.16;5045096;28;20075;-68
2021/12/05 11:24:10;;;;;;;2.40;2.08;;;;;;;-4.22;72.11;100737.78;5044883;28;20036;-69
2021/12/05 11:26:38;;;;;;;2.33;1.80;;;;;;;-4.30;72.21;100732.28;5044531;28;20029;-68
2021/12/05 11:29:03;;;;;;;3.25;1.73;;;;;;;-4.31;72.64;100722.91;5044470;28;20029;-68
2021/12/05 11:31:30;;;;;;;2.55;1.88;;;;;;;-4.30;72.79;100732.28;5044523;28;20037;-69
2021/12/05 11:33:57;;;;;;;3.13;1.45;;;;;;;-4.18;72.14;100747.31;5049131;28;20025;-69
2021/12/05 11:36:26;;;;;;;2.30;1.73;;;;;;;-4.26;72.36;100733.31;5045023;28;20045;-70
2021/12/05 11:38:51;;;;;;;2.90;1.42;;;;;;;-4.24;72.42;100739.34;5044550;28;20099;-68
2021/12/05 11:41:22;;;;;;;4.30;2.17;;;;;;;-4.29;72.50;100734.03;5044905;28;20028;-68
2021/12/05 11:43:54;;;;;;;1.70;1.27;;;;;;;-4.29;72.28;100746.69;5044535;28;20021;-68
2021/12/05 11:46:34;;;;;;;4.38;2.00;;;;;;;-4.24;72.59;100754.56;5044140;28;20277;-68
2021/12/05 11:49:03;;;;;;;2.28;1.80;;;;;;;-4.18;72.36;100747.31;5044030;28;20496;-69
2021/12/05 11:51:41;;;;;;;3.28;2.33;;;;;;;-4.25;72.27;100747.75;5044386;28;20485;-69
2021/12/05 11:54:09;;;;;;;2.28;1.80;;;;;;;-4.35;72.54;100738.75;5044220;28;20075;-67
2021/12/05 11:56:34;;;;;;;3.42;2.42;;;;;;;-4.34;72.77;100753.16;5044137;28;20100;-70
2021/12/05 11:59:08;;;;;;;3.45;2.15;;;;;;;-4.24;72.55;100747.84;5043993;28;20040;-69
2021/12/05 12:01:52;;;;;;;2.40;1.38;;;;;;;-4.20;72.61;100761.53;5043918;28;20087;-69
2021/12/05 12:04:21;;;;;;;2.00;1.63;;;;;;;-4.18;71.80;100748.94;5043861;28;20021;-68
2021/12/05 12:07:06;;;;;;;2.58;2.10;;;;;;;-4.39;72.50;100754.53;5043876;28;20029;-69
2021/12/05 12:09:31;;;;;;;2.97;1.92;;;;;;;-4.45;72.62;100752.53;5043772;28;20043;-69
2021/12/05 12:11:57;;;;;;;1.75;1.63;;;;;;;-4.53;72.58;100757.16;5043895;28;20030;-68
2021/12/05 12:14:22;;;;;;;3.45;2.15;;;;;;;-4.57;72.47;100760.31;5043575;28;20021;-68
2021/12/05 12:16:50;;;;;;;4.65;3.05;;;;;;;-4.64;72.67;100756.53;5042218;28;20068;-68
2021/12/05 12:19:21;;;;;;;2.25;1.63;;;;;;;-4.63;72.54;100759.91;5043705;28;20398;-68
2021/12/05 12:21:48;;;;;;;4.97;2.63;;;;;;;-4.61;72.89;100748.22;5042410;28;20029;-67
2021/12/05 12:24:15;;;;;;;2.78;1.95;;;;;;;-4.56;72.21;100772.19;5043820;28;20022;-68
2021/12/05 12:26:41;;;;;;;2.63;1.95;;;;;;;-4.56;72.87;100768.75;5043648;28;20021;-68
2021/12/05 12:29:09;;;;;;;5.03;2.33;;;;;;;-4.56;72.73;100777.25;5043681;28;20032;-69
2021/12/05 12:31:37;;;;;;;2.83;1.70;;;;;;;-4.61;73.04;100769.38;5042037;28;20289;-68
2021/12/05 12:34:09;;;;;;;2.20;1.63;;;;;;;-4.55;72.87;100757.88;5042269;28;20109;-67
2021/12/05 12:36:48;;;;;;;2.58;1.50;;;;;;;-4.56;72.68;100771.28;5043723;28;20091;-69
2021/12/05 12:39:17;;;;;;;3.45;2.10;;;;;;;-4.63;72.96;100781.06;5043398;28;20029;-69
2021/12/05 12:41:59;;;;;;;3.03;1.95;;;;;;;-4.68;72.87;100801.88;5043681;28;20064;-68
2021/12/05 12:44:26;;;;;;;2.92;2.25;;;;;;;-4.76;72.90;100783.69;5043055;28;20077;-70
2021/12/05 12:46:57;;;;;;;3.92;2.20;;;;;;;-4.74;72.95;100803.25;5045029;28;20072;-69
2021/12/05 12:49:48;;;;;;;1.80;1.57;;;;;;;-4.88;72.74;100779.63;5047435;28;20032;-69
2021/12/05 12:52:15;;;;;;;3.03;2.13;;;;;;;-4.90;72.81;100790.41;5046575;28;20101;-68
2021/12/05 12:54:45;;;;;;;3.53;2.00;;;;;;;-4.85;73.07;100789.94;5047644;28;20030;-68
2021/12/05 12:57:23;;;;;;;1.27;1.15;;;;;;;-5.01;73.25;100766.97;5047509;28;20017;-69
2021/12/05 12:59:56;;;;;;;1.80;1.60;;;;;;;-4.75;72.98;100793.91;5047120;28;20036;-70
2021/12/05 13:02:37;;;;;;;3.03;2.03;;;;;;;-4.83;72.78;100812.81;5046135;28;20025;-69
2021/12/05 13:05:24;;;;;;;3.47;1.90;;;;;;;-4.87;72.94;100791.47;5047192;28;20017;-70
2021/12/05 13:10:46;;;;;;;2.17;1.73;;;;;;;-4.96;73.00;100803.59;5047271;28;20033;-68
2021/12/05 13:13:16;;;;;;;2.45;1.70;;;;;;;-4.97;73.11;100807.78;5047248;28;20037;-70
2021/12/05 13:15:56;;;;;;;1.98;1.77;;;;;;;-5.04;73.44;100803.13;5046470;28;20077;-69
2021/12/05 13:18:42;;;;;;;3.75;2.10;;;;;;;-4.94;72.88;100812.16;5045285;28;20025;-69
2021/12/05 13:21:16;;;;;;;2.85;1.60;;;;;;;-5.02;73.19;100816.75;5046954;28;20018;-69
2021/12/05 13:23:50;;;;;;;2.28;1.63;;;;;;;-5.08;73.54;100815.50;5046904;28;20029;-68
2021/12/05 13:26:16;;;;;;;3.20;1.75;;;;;;;-5.00;73.15;100819.41;5046939;28;20049;-69
2021/12/05 13:28:57;;;;;;;3.42;1.92;;;;;;;-5.15;73.62;100814.25;5046621;28;20044;-70
2021/12/05 13:31:28;;;;;;;1.13;1.02;;;;;;;-5.16;73.66;100825.16;5046262;28;20038;-70
2021/12/05 13:34:15;;;;;;;6.70;2.88;;;;;;;-5.16;73.64;100841.19;5046506;28;20050;-69
2021/12/05 13:36:44;;;;;;;3.20;2.05;;;;;;;-5.10;73.30;100828.06;5046689;28;20434;-70
2021/12/05 13:39:33;;;;;;;3.05;1.85;;;;;;;-5.24;73.52;100832.28;5046551;28;20049;-69
2021/12/05 13:42:19;;;;;;;3.25;1.75;;;;;;;-5.26;73.66;100827.13;5045226;28;20107;-68
2021/12/05 13:45:00;;;;;;;3.72;2.25;;;;;;;-5.32;73.83;100828.38;5046246;28;20108;-68
2021/12/05 13:47:51;;;;;;;1.80;1.50;;;;;;;-5.33;73.95;100836.75;5046282;28;20017;-68
2021/12/05 13:50:23;;;;;;;1.63;1.13;;;;;;;-5.29;73.80;100852.25;5045994;28;20029;-69
2021/12/05 13:52:52;;;;;;;2.45;2.25;;;;;;;-5.31;73.85;100843.66;5046215;28;20081;-68
2021/12/05 13:55:29;;;;;;;2.35;1.17;;;;;;;-5.34;74.06;100846.00;5044611;28;20029;-68
2021/12/05 14:01:18;;;;;;;2.40;1.65;;;;;;;-5.38;74.19;100851.63;5045983;28;20470;-68
2021/12/05 14:04:03;;;;;;;2.10;1.45;;;;;;;-5.41;74.35;100853.97;5046070;28;20467;-69
2021/12/05 14:06:34;;;;;;;4.20;2.65;;;;;;;-5.44;74.40;100852.13;5046104;28;20018;-69
2021/12/05 14:09:12;;;;;;;4.45;2.55;;;;;;;-5.47;74.60;100850.28;5044485;28;20025;-69
2021/12/05 14:11:44;;;;;;;3.00;2.22;;;;;;;-5.49;74.64;100840.81;5046071;28;20106;-69
2021/12/05 14:14:10;;;;;;;3.25;2.10;;;;;;;-5.47;74.47;100865.47;5044484;28;20021;-69
2021/12/05 14:16:38;;;;;;;2.90;2.35;;;;;;;-5.40;74.31;100870.94;5045634;28;20044;-69
2021/12/05 14:19:13;;;;;;;3.08;2.30;;;;;;;-5.53;74.71;100870.16;5045513;28;20490;-68
2021/12/05 14:21:41;;;;;;;5.32;2.58;;;;;;;-5.66;74.74;100858.34;5045697;28;20036;-70
2021/12/05 14:24:07;;;;;;;3.72;2.28;;;;;;;-5.57;74.89;100870.69;5045593;28;20029;-69
2021/12/05 14:26:36;;;;;;;4.50;2.13;;;;;;;-5.71;74.99;100857.16;5045487;28;20273;-68
2021/12/05 14:29:06;;;;;;;4.22;2.60;;;;;;;-5.63;75.01;100877.91;5045521;28;20021;-69
2021/12/05 14:31:35;;;;;;;2.88;1.75;;;;;;;-5.61;74.96;100899.97;5044903;28;20445;-69
2021/12/05 14:34:02;;;;;;;5.00;2.67;;;;;;;-5.64;74.79;100879.53;5045383;28;20025;-69
2021/12/05 14:36:38;;;;;;;3.00;1.63;;;;;;;-5.66;75.10;100914.00;5045407;28;20349;-67
2021/12/05 14:39:11;;;;;;;4.18;2.72;;;;;;;-5.65;75.10;100905.63;5045334;28;20021;-69
2021/12/05 14:41:38;;;;;;;3.50;1.92;;;;;;;-5.64;75.13;100903.97;5045271;28;20079;-68
2021/12/05 14:44:04;;;;;;;2.47;2.28;;;;;;;-5.65;75.33;100909.81;5045259;28;20101;-69
2021/12/05 14:46:30;;;;;;;3.38;1.50;;;;;;;-5.61;75.26;100914.31;5045039;28;20032;-69
2021/12/05 14:49:02;;;;;;;3.08;2.17;;;;;;;-5.59;75.18;100910.19;5044949;28;20440;-69
2021/12/05 14:51:36;;;;;;;3.40;2.55;;;;;;;-5.63;75.05;100910.78;5045153;28;20540;-69
2021/12/05 14:54:02;;;;;;;7.35;2.25;;;;;;;-5.61;75.20;100915.16;5045068;28;20055;-68
2021/12/05 14:56:35;;;;;;;3.10;1.90;;;;;;;-5.63;75.11;100921.78;5045195;28;20021;-69
2021/12/05 14:59:13;;;;;;;3.85;2.22;;;;;;;-5.62;75.25;100945.41;5044997;28;20478;-69
2021/12/05 15:01:42;;;;;;;2.17;1.48;;;;;;;-5.72;75.30;100911.94;5044551;28;20087;-68
2021/12/05 15:04:10;;;;;;;5.32;2.35;;;;;;;-5.67;75.35;100931.63;5043492;28;20018;-69
2021/12/05 15:06:44;;;;;;;3.10;1.92;;;;;;;-5.69;75.46;100926.44;5044914;28;20214;-67
2021/12/05 15:09:34;;;;;;;3.65;1.95;;;;;;;-5.69;75.33;100931.50;5044429;28;20026;-69
2021/12/05 15:12:04;;;;;;;1.88;1.45;;;;;;;-5.75;75.27;100926.91;5044993;28;20032;-70
2021/12/05 15:14:30;;;;;;;3.78;1.77;;;;;;;-5.70;75.12;100931.41;5044354;28;20033;-69
2021/12/05 15:17:01;;;;;;;5.53;2.15;;;;;;;-5.74;75.32;100933.75;5044557;28;20021;-69
2021/12/05 15:19:27;;;;;;;3.72;2.38;;;;;;;-5.75;75.11;100923.53;5044318;28;20025;-69
2021/12/05 15:21:54;;;;;;;3.42;1.95;;;;;;;-5.78;75.39;100921.66;5044548;28;20025;-69
2021/12/05 15:24:22;;;;;;;3.38;2.42;;;;;;;-5.83;75.46;100929.72;5043123;28;20026;-68
2021/12/05 15:26:48;;;;;;;1.98;1.48;;;;;;;-5.87;75.45;100933.69;5044345;28;20021;-69
2021/12/05 15:29:14;;;;;;;4.80;2.20;;;;;;;-5.89;75.21;100935.22;5042805;28;20028;-68
2021/12/05 15:31:42;;;;;;;3.83;1.88;;;;;;;-5.93;75.29;100934.16;5043997;28;20068;-69
2021/12/05 15:34:37;;;;;;;1.52;1.40;;;;;;;-6.01;75.72;100942.88;5044536;28;20113;-67
2021/12/05 15:37:09;;;;;;;3.33;1.13;;;;;;;-5.92;75.37;100932.47;5039520;28;20047;-68
2021/12/05 15:39:37;;;;;;;6.22;2.90;;;;;;;-6.00;75.45;100945.50;5044151;28;20029;-68
2021/12/05 15:42:13;;;;;;;3.33;2.10;;;;;;;-5.99;75.61;100944.72;5042632;28;20045;-67
2021/12/05 15:44:42;;;;;;;3.08;2.03;;;;;;;-5.99;75.47;100957.38;5043799;28;20461;-70
2021/12/05 15:47:15;;;;;;;1.80;1.65;;;;;;;-6.02;75.30;100957.16;5044115;28;20043;-69
2021/12/05 15:49:59;;;;;;;4.38;2.10;;;;;;;-6.06;75.68;100967.88;5043931;28;20045;-68
2021/12/05 15:52:52;;;;;;;1.90;1.63;;;;;;;-6.15;75.66;100964.72;5042618;28;20022;-68
2021/12/05 15:55:29;;;;;;;2.20;1.40;;;;;;;-6.11;75.59;100972.63;5044070;28;20052;-68
2021/12/05 15:58:07;;;;;;;5.80;2.10;;;;;;;-6.18;75.67;100965.38;5043765;28;20088;-67
2021/12/05 16:00:41;;;;;;;2.70;1.80;;;;;;;-6.22;75.50;100956.72;5043587;28;20408;-70
2021/12/05 16:03:10;;;;;;;2.28;1.77;;;;;;;-6.14;75.70;100971.53;5043967;28;20021;-70
2021/12/05 16:05:38;;;;;;;3.50;2.15;;;;;;;-6.08;75.50;100986.22;5042344;28;20021;-70
2021/12/05 16:08:14;;;;;;;2.22;1.73;;;;;;;-6.10;75.51;100981.06;5042297;28;20025;-69
2021/12/05 16:10:43;;;;;;;3.42;2.25;;;;;;;-6.08;75.36;100978.63;5044003;28;20031;-69
2021/12/05 16:13:18;;;;;;;2.88;2.08;;;;;;;-6.06;75.31;100975.47;5043510;28;20029;-70
2021/12/05 16:15:46;;;;;;;2.97;2.38;;;;;;;-6.12;75.06;100960.72;5043394;28;20117;-67
2021/12/05 16:18:12;;;;;;;1.60;1.50;;;;;;;-6.01;75.15;100976.63;5043217;28;20109;-68
2021/12/05 16:20:46;;;;;;;3.00;1.83;;;;;;;-6.06;75.06;100959.41;5043289;28;20035;-69
2021/12/05 16:23:26;;;;;;;1.95;1.70;;;;;;;-6.03;75.12;100979.81;5041485;28;20017;-68
2021/12/05 16:26:03;;;;;;;2.05;1.73;;;;;;;-6.00;75.06;100980.00;5043283;28;20112;-67
2021/12/05 16:28:50;;;;;;;3.45;1.70;;;;;;;-5.98;75.06;100984.44;5043098;28;20026;-67
2021/12/05 16:31:24;;;;;;;1.50;1.27;;;;;;;-5.90;74.61;100986.59;5042711;28;20103;-67
2021/12/05 16:33:55;;;;;;;2.30;1.55;;;;;;;-5.93;75.16;100992.31;5043459;28;20045;-67
2021/12/05 16:36:21;;;;;;;3.10;1.80;;;;;;;-5.98;75.15;100991.13;5043526;28;20025;-69
2021/12/05 16:38:51;;;;;;;2.70;2.10;;;;;;;-5.95;75.06;100987.91;5043239;28;20024;-68
2021/12/05 16:41:18;;;;;;;3.33;1.48;;;;;;;-5.90;75.10;100996.69;5043124;28;20048;-67
2021/12/05 16:44:03;;;;;;;2.42;1.75;;;;;;;-5.90;75.19;101000.13;5043358;28;20025;-67
2021/12/05 16:46:33;;;;;;;3.00;1.92;;;;;;;-5.98;75.26;100989.47;5041774;28;20105;-67
2021/12/05 16:49:02;;;;;;;6.22;2.40;;;;;;;-5.95;75.17;100996.38;5043076;28;20116;-68